Terminal Aerodrome Forecast
Issued by NWS Charleston, WV

Current Version | Previous Version | Graphics & Text | Print | Product List | Glossary On
Versions: 1 2 3 4 5 6 7 8 9 10 11 12 13 14 15 16 17 18 19 20 21 22 23 24 25 26 27
000
FTUS41 KRLX 301616 AAB
TAFEKN
TAF AMD
KEKN 301616Z 3016/0112 21005KT 5SM -RA BR SCT025 OVC035
      TEMPO 3016/3020 2SM SHRA BR BKN025
     FM010100 27006KT P6SM BKN060=

USA.gov is the U.S. government's official web portal to all federal, state and local government web resources and services.